Time;durP1;ratioP1;P1;durP2;ratioP2;P2;SDS_P1;SDS_P2;PMS_P1;PMS_P2;Temp;Humidity;BMP_temperature;BMP_pressure;BME280_temperature;BME280_humidity;BME280_pressure;Samples;Min_cycle;Max_cycle;Signal;HPM_P1;HPM_P2
2022/09/30 00:01:16;;;;;;;2.47;2.28;;;;;;;;;;615608;234;26582;-64
2022/09/30 00:03:48;;;;;;;2.85;2.65;;;;;;;;;;615575;234;26815;-64
2022/09/30 00:06:14;;;;;;;2.87;2.67;;;;;;;;;;615460;234;26544;-64
2022/09/30 00:08:43;;;;;;;3.03;2.60;;;;;;;;;;615629;233;26624;-64
2022/09/30 00:11:12;;;;;;;2.65;2.45;;;;;;;;;;615639;234;26560;-65
2022/09/30 00:13:41;;;;;;;2.72;2.53;;;;;;;;;;615620;233;26595;-64
2022/09/30 00:16:09;;;;;;;2.53;2.33;;;;;;;;;;615591;234;26598;-64
2022/09/30 00:18:38;;;;;;;3.25;2.33;;;;;;;;;;615595;234;26565;-65
2022/09/30 00:21:07;;;;;;;2.90;2.60;;;;;;;;;;615627;233;26815;-64
2022/09/30 00:23:37;;;;;;;3.05;2.55;;;;;;;;;;615581;234;26589;-64
2022/09/30 00:26:05;;;;;;;2.80;2.58;;;;;;;;;;615577;234;26766;-64
2022/09/30 00:28:34;;;;;;;2.70;2.50;;;;;;;;;;615619;233;26568;-64
2022/09/30 00:31:04;;;;;;;2.40;2.30;;;;;;;;;;615573;234;26585;-64
2022/09/30 00:33:31;;;;;;;2.30;2.20;;;;;;;;;;616302;231;26580;-64
2022/09/30 00:36:00;;;;;;;2.28;2.15;;;;;;;;;;616987;233;26579;-65
2022/09/30 00:38:29;;;;;;;3.05;2.37;;;;;;;;;;616692;233;26619;-65
2022/09/30 00:40:58;;;;;;;2.47;2.28;;;;;;;;;;616516;232;26562;-64
2022/09/30 00:43:33;;;;;;;2.30;2.20;;;;;;;;;;616249;233;26848;-64
2022/09/30 00:46:02;;;;;;;2.72;2.55;;;;;;;;;;616191;233;26804;-65
2022/09/30 00:48:30;;;;;;;2.30;2.20;;;;;;;;;;616230;233;26582;-65
2022/09/30 00:50:59;;;;;;;2.80;2.60;;;;;;;;;;616385;233;26550;-65
2022/09/30 00:53:29;;;;;;;2.45;2.10;;;;;;;;;;616296;233;26595;-65
2022/09/30 00:55:58;;;;;;;2.40;2.20;;;;;;;;;;616250;233;26598;-64
2022/09/30 00:58:30;;;;;;;2.65;2.50;;;;;;;;;;616163;233;26585;-64
2022/09/30 01:01:00;;;;;;;2.10;2.00;;;;;;;;;;615754;233;26614;-64
2022/09/30 01:03:28;;;;;;;2.62;2.42;;;;;;;;;;615864;233;26955;-67
2022/09/30 01:05:57;;;;;;;6.57;2.58;;;;;;;;;;615863;233;26660;-64
2022/09/30 01:08:26;;;;;;;2.97;2.05;;;;;;;;;;615933;233;26853;-64
2022/09/30 01:10:55;;;;;;;3.58;2.65;;;;;;;;;;615488;233;26576;-64
2022/09/30 01:13:23;;;;;;;2.90;2.70;;;;;;;;;;615632;234;26820;-64
2022/09/30 01:16:08;;;;;;;6.78;2.75;;;;;;;;;;615628;233;26557;-64
2022/09/30 01:18:37;;;;;;;2.83;2.53;;;;;;;;;;611091;233;27104;-64
2022/09/30 01:21:09;;;;;;;2.55;2.35;;;;;;;;;;615251;234;26597;-64
2022/09/30 01:23:41;;;;;;;2.78;2.58;;;;;;;;;;614508;234;26648;-64
2022/09/30 01:26:15;;;;;;;2.87;2.67;;;;;;;;;;615177;234;26593;-64
2022/09/30 01:28:48;;;;;;;2.70;2.28;;;;;;;;;;615082;234;26894;-64
2022/09/30 01:31:17;;;;;;;2.70;2.50;;;;;;;;;;614524;234;26562;-64
2022/09/30 01:33:47;;;;;;;2.62;2.42;;;;;;;;;;615095;234;26956;-65
2022/09/30 01:36:17;;;;;;;2.72;2.33;;;;;;;;;;615019;234;26599;-64
2022/09/30 01:38:48;;;;;;;2.47;2.28;;;;;;;;;;615184;234;26565;-64
2022/09/30 01:41:21;;;;;;;2.70;2.50;;;;;;;;;;615028;234;26572;-64
2022/09/30 01:43:50;;;;;;;3.83;2.53;;;;;;;;;;615752;233;26569;-64
2022/09/30 01:46:19;;;;;;;2.60;2.40;;;;;;;;;;617171;231;26532;-64
2022/09/30 01:48:50;;;;;;;2.80;2.60;;;;;;;;;;616941;233;26811;-64
2022/09/30 01:51:20;;;;;;;2.42;2.15;;;;;;;;;;616402;233;26609;-64
2022/09/30 01:53:49;;;;;;;3.97;2.50;;;;;;;;;;616465;233;26596;-64
2022/09/30 01:56:18;;;;;;;2.30;2.20;;;;;;;;;;616183;233;26568;-64
2022/09/30 01:58:50;;;;;;;3.50;2.10;;;;;;;;;;615911;233;26584;-64
2022/09/30 02:01:30;;;;;;;2.50;2.40;;;;;;;;;;615837;233;27095;-64
2022/09/30 02:03:58;;;;;;;2.15;2.05;;;;;;;;;;615822;233;26663;-64
2022/09/30 02:06:28;;;;;;;2.30;2.20;;;;;;;;;;615620;233;26640;-65
2022/09/30 02:08:58;;;;;;;2.72;2.53;;;;;;;;;;615581;233;26863;-64
2022/09/30 02:11:26;;;;;;;3.42;2.55;;;;;;;;;;615713;233;26621;-64
2022/09/30 02:13:55;;;;;;;2.37;2.17;;;;;;;;;;615894;232;26845;-64
2022/09/30 02:16:26;;;;;;;2.30;2.10;;;;;;;;;;615764;227;26640;-64
2022/09/30 02:18:54;;;;;;;2.10;2.00;;;;;;;;;;615784;232;26941;-64
2022/09/30 02:21:23;;;;;;;2.37;2.28;;;;;;;;;;615468;233;26608;-64
2022/09/30 02:23:52;;;;;;;2.65;2.25;;;;;;;;;;615369;234;26561;-64
2022/09/30 02:26:21;;;;;;;3.20;2.37;;;;;;;;;;615411;233;26572;-64
2022/09/30 02:28:51;;;;;;;2.37;2.28;;;;;;;;;;615426;234;26552;-64
2022/09/30 02:31:20;;;;;;;3.15;2.25;;;;;;;;;;615373;234;26864;-64
2022/09/30 02:33:50;;;;;;;2.53;2.33;;;;;;;;;;615400;228;26596;-64
2022/09/30 02:36:20;;;;;;;2.30;2.20;;;;;;;;;;615240;234;26570;-64
2022/09/30 02:38:49;;;;;;;2.65;2.40;;;;;;;;;;615233;234;26567;-64
2022/09/30 02:41:19;;;;;;;2.22;2.03;;;;;;;;;;615092;234;26559;-64
2022/09/30 02:43:47;;;;;;;2.20;2.10;;;;;;;;;;615958;234;26578;-64
2022/09/30 02:46:20;;;;;;;2.20;2.10;;;;;;;;;;616036;234;26840;-64
2022/09/30 02:48:54;;;;;;;2.62;2.42;;;;;;;;;;615726;234;26529;-64
2022/09/30 02:51:24;;;;;;;2.50;2.30;;;;;;;;;;615754;234;26519;-64
2022/09/30 02:53:53;;;;;;;2.17;2.08;;;;;;;;;;615409;234;26791;-64
2022/09/30 02:56:22;;;;;;;2.37;2.05;;;;;;;;;;616069;231;26540;-64
2022/09/30 02:58:51;;;;;;;3.05;2.65;;;;;;;;;;617190;233;26571;-64
2022/09/30 03:01:20;;;;;;;2.08;1.98;;;;;;;;;;617017;232;26589;-65
2022/09/30 03:03:49;;;;;;;2.40;2.30;;;;;;;;;;616797;233;26551;-63
2022/09/30 03:06:18;;;;;;;2.50;2.30;;;;;;;;;;616162;233;26559;-63
2022/09/30 03:08:47;;;;;;;2.30;2.17;;;;;;;;;;616294;232;26895;-63
2022/09/30 03:11:17;;;;;;;2.20;2.00;;;;;;;;;;616186;232;26583;-63
2022/09/30 03:13:49;;;;;;;2.30;2.20;;;;;;;;;;616118;233;26599;-64
2022/09/30 03:16:21;;;;;;;2.05;1.95;;;;;;;;;;615577;228;26669;-63
2022/09/30 03:18:50;;;;;;;2.22;2.12;;;;;;;;;;615154;233;26853;-63
2022/09/30 03:21:20;;;;;;;2.25;2.12;;;;;;;;;;615316;233;26609;-64
2022/09/30 03:24:03;;;;;;;2.30;2.08;;;;;;;;;;615065;233;26712;-63
2022/09/30 03:26:36;;;;;;;2.25;2.10;;;;;;;;;;615589;233;27095;-63
2022/09/30 03:29:09;;;;;;;2.15;2.03;;;;;;;;;;615790;233;26869;-63
2022/09/30 03:31:41;;;;;;;2.12;2.03;;;;;;;;;;615407;233;26579;-63
2022/09/30 03:34:10;;;;;;;2.20;2.10;;;;;;;;;;614861;234;26625;-63
2022/09/30 03:36:39;;;;;;;2.47;2.05;;;;;;;;;;615033;234;26561;-64
2022/09/30 03:39:09;;;;;;;3.33;2.30;;;;;;;;;;615470;234;26537;-63
2022/09/30 03:41:38;;;;;;;2.47;2.28;;;;;;;;;;615207;228;26578;-63
2022/09/30 03:44:09;;;;;;;2.30;2.10;;;;;;;;;;615258;234;26590;-63
2022/09/30 03:46:47;;;;;;;2.25;2.15;;;;;;;;;;615531;234;26638;-63
2022/09/30 03:49:18;;;;;;;2.55;2.35;;;;;;;;;;615665;234;26564;-63
2022/09/30 03:51:47;;;;;;;2.12;2.03;;;;;;;;;;615464;234;26590;-64
2022/09/30 03:54:16;;;;;;;2.10;2.00;;;;;;;;;;615621;234;26813;-63
2022/09/30 03:56:45;;;;;;;2.25;2.05;;;;;;;;;;615617;234;26870;-63
2022/09/30 03:59:16;;;;;;;2.20;2.10;;;;;;;;;;615594;234;26565;-63
2022/09/30 04:01:45;;;;;;;2.20;2.10;;;;;;;;;;615637;234;26573;-63
2022/09/30 04:04:14;;;;;;;2.20;2.10;;;;;;;;;;615990;234;26798;-63
2022/09/30 04:06:43;;;;;;;2.20;2.10;;;;;;;;;;616080;234;26543;-63
2022/09/30 04:09:12;;;;;;;2.22;2.12;;;;;;;;;;617393;231;26772;-63
2022/09/30 04:11:40;;;;;;;1.98;1.87;;;;;;;;;;617197;233;26542;-63
2022/09/30 04:14:09;;;;;;;2.37;2.28;;;;;;;;;;616923;232;26555;-63
2022/09/30 04:16:38;;;;;;;2.12;2.03;;;;;;;;;;616875;233;26540;-64
2022/09/30 04:19:07;;;;;;;2.00;1.90;;;;;;;;;;616593;233;26528;-65
2022/09/30 04:21:36;;;;;;;2.03;1.92;;;;;;;;;;616286;233;26553;-64
2022/09/30 04:24:05;;;;;;;2.33;2.20;;;;;;;;;;616259;233;26595;-64
2022/09/30 04:26:33;;;;;;;2.30;2.03;;;;;;;;;;616073;233;26551;-64
2022/09/30 04:29:02;;;;;;;2.47;2.10;;;;;;;;;;615911;233;27245;-64
2022/09/30 04:31:31;;;;;;;2.10;2.00;;;;;;;;;;615914;233;26614;-64
2022/09/30 04:34:00;;;;;;;2.45;2.25;;;;;;;;;;615937;233;26844;-64
2022/09/30 04:36:29;;;;;;;2.28;2.08;;;;;;;;;;615928;233;26606;-64
2022/09/30 04:38:58;;;;;;;1.83;1.73;;;;;;;;;;615921;233;26606;-64
2022/09/30 04:41:28;;;;;;;2.10;1.90;;;;;;;;;;615933;233;26842;-65
2022/09/30 04:43:56;;;;;;;2.15;2.05;;;;;;;;;;615770;233;26629;-65
2022/09/30 04:46:24;;;;;;;2.05;1.95;;;;;;;;;;615622;234;26805;-65
2022/09/30 04:48:53;;;;;;;2.03;1.92;;;;;;;;;;615646;234;26561;-65
2022/09/30 04:51:23;;;;;;;2.33;2.12;;;;;;;;;;615591;234;26572;-65
2022/09/30 04:53:52;;;;;;;1.98;1.87;;;;;;;;;;615614;234;26560;-65
2022/09/30 04:56:23;;;;;;;2.20;2.10;;;;;;;;;;615614;233;26588;-65
2022/09/30 04:58:50;;;;;;;2.03;1.92;;;;;;;;;;615530;234;26572;-65
2022/09/30 05:01:20;;;;;;;1.92;1.83;;;;;;;;;;615633;234;26633;-65
2022/09/30 05:03:49;;;;;;;1.98;1.87;;;;;;;;;;615502;234;26591;-65
2022/09/30 05:06:17;;;;;;;1.98;1.87;;;;;;;;;;615569;234;26581;-65
2022/09/30 05:08:46;;;;;;;2.37;2.20;;;;;;;;;;615653;234;26795;-65
2022/09/30 05:11:16;;;;;;;2.30;2.20;;;;;;;;;;615585;234;26556;-64
2022/09/30 05:13:43;;;;;;;2.35;2.15;;;;;;;;;;615492;234;27253;-65
2022/09/30 05:16:12;;;;;;;2.00;1.90;;;;;;;;;;615665;233;26590;-65
2022/09/30 05:18:44;;;;;;;4.05;1.98;;;;;;;;;;615606;233;26552;-65
2022/09/30 05:21:10;;;;;;;4.43;2.22;;;;;;;;;;617345;231;26543;-65
2022/09/30 05:23:39;;;;;;;1.98;1.67;;;;;;;;;;617186;233;26611;-65
2022/09/30 05:26:08;;;;;;;2.15;1.83;;;;;;;;;;616737;233;26836;-65
2022/09/30 05:28:36;;;;;;;3.12;1.83;;;;;;;;;;616413;233;26568;-65
2022/09/30 05:31:06;;;;;;;2.00;1.90;;;;;;;;;;616229;233;26799;-65
2022/09/30 05:33:35;;;;;;;3.87;2.20;;;;;;;;;;616225;233;26591;-65
2022/09/30 05:36:05;;;;;;;4.07;2.20;;;;;;;;;;616189;233;26816;-65
2022/09/30 05:38:33;;;;;;;3.15;2.15;;;;;;;;;;616181;232;26626;-64
2022/09/30 05:41:06;;;;;;;2.50;2.30;;;;;;;;;;615945;232;26808;-65
2022/09/30 05:43:34;;;;;;;2.45;2.25;;;;;;;;;;615847;233;26852;-65
2022/09/30 05:46:03;;;;;;;6.20;2.05;;;;;;;;;;615918;232;26667;-65
2022/09/30 05:48:32;;;;;;;2.25;2.15;;;;;;;;;;615939;233;26925;-64
2022/09/30 05:51:01;;;;;;;4.22;2.17;;;;;;;;;;615879;233;26643;-64
2022/09/30 05:53:30;;;;;;;4.87;2.28;;;;;;;;;;615909;233;26621;-65
2022/09/30 05:55:59;;;;;;;3.78;2.30;;;;;;;;;;615733;232;26792;-65
2022/09/30 05:58:28;;;;;;;2.53;2.33;;;;;;;;;;615615;234;26574;-64
2022/09/30 06:00:56;;;;;;;4.37;2.20;;;;;;;;;;615659;234;26808;-65
2022/09/30 06:03:25;;;;;;;2.50;2.30;;;;;;;;;;617364;231;26621;-65
2022/09/30 06:05:56;;;;;;;4.28;2.45;;;;;;;;;;615951;231;26581;-65
2022/09/30 06:08:24;;;;;;;3.35;2.50;;;;;;;;;;614265;233;26573;-65
2022/09/30 06:10:53;;;;;;;2.47;2.30;;;;;;;;;;613050;234;26815;-65
2022/09/30 06:13:22;;;;;;;2.65;2.25;;;;;;;;;;612992;234;26588;-65
2022/09/30 06:15:55;;;;;;;2.55;2.25;;;;;;;;;;614449;234;26576;-65
2022/09/30 06:18:24;;;;;;;2.78;2.58;;;;;;;;;;617523;231;26629;-66
2022/09/30 06:20:53;;;;;;;3.50;2.17;;;;;;;;;;615030;231;27281;-66
2022/09/30 06:23:21;;;;;;;2.70;2.37;;;;;;;;;;613702;231;26618;-66
2022/09/30 06:25:50;;;;;;;2.35;2.25;;;;;;;;;;616641;231;27224;-66
2022/09/30 06:28:18;;;;;;;2.45;2.35;;;;;;;;;;614244;234;26588;-66
2022/09/30 06:30:47;;;;;;;2.70;2.47;;;;;;;;;;614490;228;26555;-66
2022/09/30 06:33:16;;;;;;;9.95;3.10;;;;;;;;;;617155;231;26739;-65
2022/09/30 06:35:46;;;;;;;7.87;2.72;;;;;;;;;;619514;231;26567;-65
2022/09/30 06:38:14;;;;;;;30.98;5.45;;;;;;;;;;614835;232;26811;-64
2022/09/30 06:40:43;;;;;;;392.48;48.67;;;;;;;;;;619584;231;26561;-66
2022/09/30 06:43:12;;;;;;;1999.90;828.60;;;;;;;;;;613961;231;26653;-66
2022/09/30 06:45:41;;;;;;;1999.90;737.30;;;;;;;;;;617787;231;26803;-64
2022/09/30 06:48:10;;;;;;;84.85;24.77;;;;;;;;;;621189;230;26624;-65
2022/09/30 06:50:39;;;;;;;91.20;22.75;;;;;;;;;;615013;233;26646;-65
2022/09/30 06:53:08;;;;;;;79.62;22.05;;;;;;;;;;613693;231;26802;-66
2022/09/30 06:55:37;;;;;;;60.25;19.50;;;;;;;;;;619033;231;26581;-66
2022/09/30 06:58:10;;;;;;;54.92;18.08;;;;;;;;;;613019;228;26578;-66
2022/09/30 07:00:35;;;;;;;55.25;16.02;;;;;;;;;;614643;233;26628;-66
2022/09/30 07:03:08;;;;;;;56.58;16.62;;;;;;;;;;613258;233;26866;-67
2022/09/30 07:05:33;;;;;;;42.90;14.23;;;;;;;;;;614802;233;26612;-66
2022/09/30 07:08:02;;;;;;;49.35;14.80;;;;;;;;;;613984;234;26564;-65
2022/09/30 07:10:30;;;;;;;37.28;13.00;;;;;;;;;;614647;231;27096;-66
2022/09/30 07:13:01;;;;;;;45.75;14.45;;;;;;;;;;615192;234;26598;-68
2022/09/30 07:15:28;;;;;;;27.70;10.63;;;;;;;;;;615140;234;26588;-66
2022/09/30 07:17:57;;;;;;;34.33;10.60;;;;;;;;;;615164;234;26615;-67
2022/09/30 07:20:26;;;;;;;24.27;10.75;;;;;;;;;;615132;234;26573;-66
2022/09/30 07:22:55;;;;;;;28.85;9.85;;;;;;;;;;615350;234;26802;-65
2022/09/30 07:25:24;;;;;;;26.92;8.98;;;;;;;;;;615350;233;26568;-66
2022/09/30 07:27:54;;;;;;;23.10;7.97;;;;;;;;;;615609;234;26565;-66
2022/09/30 07:30:22;;;;;;;21.05;7.90;;;;;;;;;;615595;234;26616;-65
2022/09/30 07:32:51;;;;;;;12.60;7.07;;;;;;;;;;615693;234;26568;-66
2022/09/30 07:35:20;;;;;;;14.65;6.72;;;;;;;;;;615675;234;26782;-66
2022/09/30 07:37:49;;;;;;;13.62;6.57;;;;;;;;;;615674;234;26700;-66
2022/09/30 07:40:18;;;;;;;11.65;6.35;;;;;;;;;;615685;234;26815;-66
2022/09/30 07:42:46;;;;;;;8.88;5.12;;;;;;;;;;616254;231;26563;-66
2022/09/30 07:45:17;;;;;;;9.52;5.45;;;;;;;;;;617113;233;26817;-66
2022/09/30 07:47:44;;;;;;;9.02;5.32;;;;;;;;;;616525;233;26608;-66
2022/09/30 07:50:14;;;;;;;8.15;5.20;;;;;;;;;;616507;233;26547;-66
2022/09/30 07:52:42;;;;;;;5.55;4.12;;;;;;;;;;616247;233;26559;-66
2022/09/30 07:55:11;;;;;;;5.65;4.32;;;;;;;;;;616139;233;26579;-66
2022/09/30 07:57:40;;;;;;;4.78;4.30;;;;;;;;;;616252;233;26767;-66
2022/09/30 08:00:09;;;;;;;8.98;4.20;;;;;;;;;;616111;233;26583;-66
2022/09/30 08:02:38;;;;;;;6.55;4.70;;;;;;;;;;615909;233;26609;-66
2022/09/30 08:05:07;;;;;;;4.12;3.72;;;;;;;;;;616015;233;26870;-66
2022/09/30 08:07:36;;;;;;;5.62;4.35;;;;;;;;;;615958;233;26607;-66
2022/09/30 08:10:05;;;;;;;7.78;4.45;;;;;;;;;;615790;233;26818;-66
2022/09/30 08:12:34;;;;;;;4.20;3.85;;;;;;;;;;615927;233;26634;-66
2022/09/30 08:15:04;;;;;;;4.95;4.25;;;;;;;;;;615890;233;26644;-67
2022/09/30 08:17:32;;;;;;;4.78;4.30;;;;;;;;;;615850;233;26859;-67
2022/09/30 08:20:00;;;;;;;6.53;4.55;;;;;;;;;;615692;233;26533;-67
2022/09/30 08:22:29;;;;;;;5.30;3.97;;;;;;;;;;615670;234;26561;-66
2022/09/30 08:24:58;;;;;;;5.50;4.37;;;;;;;;;;615646;234;26584;-66
2022/09/30 08:27:27;;;;;;;4.55;4.15;;;;;;;;;;615642;234;26545;-66
2022/09/30 08:29:56;;;;;;;4.87;4.20;;;;;;;;;;615607;234;26791;-67
2022/09/30 08:32:25;;;;;;;4.18;3.75;;;;;;;;;;615688;234;26564;-67
2022/09/30 08:34:54;;;;;;;4.30;3.65;;;;;;;;;;615659;234;26596;-67
2022/09/30 08:37:23;;;;;;;6.62;3.95;;;;;;;;;;615648;234;26567;-67
2022/09/30 08:39:51;;;;;;;5.50;4.22;;;;;;;;;;615685;233;26796;-66
2022/09/30 08:42:21;;;;;;;4.65;4.15;;;;;;;;;;615687;234;26557;-66
2022/09/30 08:44:51;;;;;;;5.00;4.00;;;;;;;;;;615240;234;26858;-66
2022/09/30 08:47:30;;;;;;;5.97;4.60;;;;;;;;;;615690;234;26568;-66
2022/09/30 08:50:05;;;;;;;4.18;3.78;;;;;;;;;;615581;234;26850;-67
2022/09/30 08:52:34;;;;;;;4.50;4.07;;;;;;;;;;615658;233;26780;-66
2022/09/30 08:55:04;;;;;;;4.43;4.05;;;;;;;;;;616654;231;26608;-67
2022/09/30 08:57:33;;;;;;;6.40;4.43;;;;;;;;;;616931;232;26568;-66
2022/09/30 09:00:06;;;;;;;6.57;4.10;;;;;;;;;;616496;233;26651;-66
2022/09/30 09:02:34;;;;;;;4.65;3.92;;;;;;;;;;616206;233;26570;-67
2022/09/30 09:05:03;;;;;;;5.28;4.15;;;;;;;;;;615874;233;26599;-67
2022/09/30 09:07:32;;;;;;;4.60;4.20;;;;;;;;;;616278;233;26572;-67
2022/09/30 09:10:01;;;;;;;4.43;4.05;;;;;;;;;;615729;233;26571;-67
2022/09/30 09:12:32;;;;;;;4.37;3.92;;;;;;;;;;615844;233;26572;-67
2022/09/30 09:15:02;;;;;;;5.60;4.00;;;;;;;;;;615558;233;26621;-67
2022/09/30 09:17:31;;;;;;;4.75;4.20;;;;;;;;;;615180;233;26607;-67
2022/09/30 09:20:02;;;;;;;5.20;4.28;;;;;;;;;;615472;233;26616;-66
2022/09/30 09:22:30;;;;;;;4.78;4.20;;;;;;;;;;615898;232;26589;-67
2022/09/30 09:24:59;;;;;;;4.85;4.35;;;;;;;;;;616303;232;26819;-66
2022/09/30 09:27:30;;;;;;;4.50;4.10;;;;;;;;;;616306;232;26602;-67
2022/09/30 09:30:10;;;;;;;4.55;4.15;;;;;;;;;;615496;233;26848;-66
2022/09/30 09:32:40;;;;;;;4.20;3.80;;;;;;;;;;616028;234;26517;-66
2022/09/30 09:35:12;;;;;;;4.25;3.85;;;;;;;;;;616009;233;26587;-67
2022/09/30 09:40:33;;;;;;;4.22;3.80;;;;;;;;;;611912;233;26541;-66
2022/09/30 09:43:06;;;;;;;4.65;4.25;;;;;;;;;;615790;234;26777;-66
2022/09/30 09:45:35;;;;;;;4.07;3.67;;;;;;;;;;615689;234;26563;-66
2022/09/30 09:48:07;;;;;;;4.12;3.83;;;;;;;;;;615851;234;26765;-66
2022/09/30 09:50:50;;;;;;;4.40;3.90;;;;;;;;;;615687;234;26552;-67
2022/09/30 09:53:19;;;;;;;4.03;3.62;;;;;;;;;;611175;233;26659;-66
2022/09/30 09:55:48;;;;;;;3.42;3.10;;;;;;;;;;615255;234;26582;-66
2022/09/30 09:58:17;;;;;;;3.95;3.65;;;;;;;;;;615339;234;26574;-66
2022/09/30 10:03:30;;;;;;;4.07;3.70;;;;;;;;;;615739;234;26604;-66
2022/09/30 10:06:00;;;;;;;3.60;3.30;;;;;;;;;;616365;231;26814;-66
2022/09/30 10:08:30;;;;;;;3.97;3.58;;;;;;;;;;616955;233;26559;-66
2022/09/30 10:10:57;;;;;;;3.75;3.42;;;;;;;;;;616619;233;26826;-66
2022/09/30 10:13:26;;;;;;;3.62;3.33;;;;;;;;;;616526;233;26586;-66
2022/09/30 10:15:55;;;;;;;3.83;3.53;;;;;;;;;;616237;233;26839;-66
2022/09/30 10:18:24;;;;;;;4.30;3.90;;;;;;;;;;616236;233;26570;-66
2022/09/30 10:20:53;;;;;;;3.90;3.60;;;;;;;;;;616087;233;26575;-66
2022/09/30 10:23:22;;;;;;;4.35;3.95;;;;;;;;;;616148;233;26888;-66
2022/09/30 10:25:55;;;;;;;4.18;3.87;;;;;;;;;;615740;233;26624;-66
2022/09/30 10:28:24;;;;;;;4.45;4.05;;;;;;;;;;615993;232;26855;-66
2022/09/30 10:30:52;;;;;;;5.35;4.35;;;;;;;;;;616254;233;26817;-66
2022/09/30 10:33:23;;;;;;;4.47;4.07;;;;;;;;;;616225;233;26621;-66
2022/09/30 10:35:53;;;;;;;4.82;4.43;;;;;;;;;;616184;233;26580;-66
2022/09/30 10:38:21;;;;;;;4.78;4.20;;;;;;;;;;616211;233;26817;-66
2022/09/30 10:40:50;;;;;;;3.92;3.62;;;;;;;;;;616154;233;26631;-66
2022/09/30 10:43:22;;;;;;;4.22;3.83;;;;;;;;;;615660;232;26826;-66
2022/09/30 10:45:51;;;;;;;4.18;3.78;;;;;;;;;;615582;234;26818;-66
2022/09/30 10:48:20;;;;;;;3.42;3.17;;;;;;;;;;615715;233;26555;-67
2022/09/30 10:50:49;;;;;;;3.72;3.42;;;;;;;;;;615551;234;26576;-66
2022/09/30 10:53:20;;;;;;;3.50;3.30;;;;;;;;;;615664;233;26589;-67
2022/09/30 10:55:49;;;;;;;4.00;3.60;;;;;;;;;;615540;234;26591;-66
2022/09/30 10:58:24;;;;;;;4.03;3.72;;;;;;;;;;615784;234;26564;-66
2022/09/30 11:00:53;;;;;;;3.28;2.97;;;;;;;;;;615575;234;26799;-66
2022/09/30 11:03:22;;;;;;;3.15;2.95;;;;;;;;;;615531;234;26584;-66
2022/09/30 11:05:50;;;;;;;3.17;2.97;;;;;;;;;;615409;234;26777;-66
2022/09/30 11:08:19;;;;;;;4.70;3.83;;;;;;;;;;615717;234;26572;-66
2022/09/30 11:10:53;;;;;;;3.33;3.12;;;;;;;;;;615504;234;26557;-65
2022/09/30 11:13:23;;;;;;;5.07;4.57;;;;;;;;;;615302;234;26843;-66
2022/09/30 11:16:03;;;;;;;4.62;4.22;;;;;;;;;;615336;234;26568;-66
2022/09/30 11:18:34;;;;;;;4.00;3.70;;;;;;;;;;616981;231;26821;-66
2022/09/30 11:21:03;;;;;;;4.15;3.85;;;;;;;;;;616723;233;26818;-66
2022/09/30 11:23:33;;;;;;;3.80;3.50;;;;;;;;;;616116;233;26582;-66
2022/09/30 11:26:04;;;;;;;3.60;3.35;;;;;;;;;;616213;233;26596;-66
2022/09/30 11:28:35;;;;;;;3.90;3.60;;;;;;;;;;615805;233;26536;-66
2022/09/30 11:31:10;;;;;;;4.20;3.90;;;;;;;;;;615660;233;26742;-66
2022/09/30 11:33:56;;;;;;;3.83;3.45;;;;;;;;;;616198;233;26594;-66
2022/09/30 11:36:30;;;;;;;4.05;3.70;;;;;;;;;;611437;233;26646;-65
2022/09/30 11:38:59;;;;;;;3.80;3.50;;;;;;;;;;615487;233;26636;-65
2022/09/30 11:41:28;;;;;;;3.17;2.97;;;;;;;;;;615395;233;26626;-66
2022/09/30 11:44:17;;;;;;;4.55;3.80;;;;;;;;;;615859;233;26644;-66
2022/09/30 11:46:49;;;;;;;4.65;4.35;;;;;;;;;;615545;233;26620;-65
2022/09/30 11:49:21;;;;;;;4.00;3.70;;;;;;;;;;615293;233;26840;-66
2022/09/30 11:51:53;;;;;;;5.28;4.87;;;;;;;;;;615575;233;26647;-66
2022/09/30 11:54:39;;;;;;;5.72;5.22;;;;;;;;;;615126;233;26818;-66
2022/09/30 11:57:10;;;;;;;3.97;3.70;;;;;;;;;;604878;233;26682;-66
2022/09/30 11:59:41;;;;;;;3.83;3.53;;;;;;;;;;615367;234;26820;-66
2022/09/30 12:02:25;;;;;;;5.75;5.18;;;;;;;;;;615426;234;26577;-66
2022/09/30 12:04:54;;;;;;;5.25;4.85;;;;;;;;;;614101;234;26581;-66
2022/09/30 12:07:26;;;;;;;4.72;4.40;;;;;;;;;;615559;234;26823;-66
2022/09/30 12:09:55;;;;;;;4.45;4.15;;;;;;;;;;614922;234;26576;-66
2022/09/30 12:12:24;;;;;;;4.32;4.03;;;;;;;;;;615433;234;26722;-66
2022/09/30 12:14:55;;;;;;;5.12;4.72;;;;;;;;;;615429;234;26592;-66
2022/09/30 12:17:25;;;;;;;4.75;4.35;;;;;;;;;;615489;234;26612;-66
2022/09/30 12:19:54;;;;;;;3.60;3.35;;;;;;;;;;615594;234;26572;-65
2022/09/30 12:22:32;;;;;;;4.78;4.37;;;;;;;;;;615549;234;26794;-65
2022/09/30 12:25:01;;;;;;;3.80;3.50;;;;;;;;;;615642;234;26815;-65
2022/09/30 12:27:32;;;;;;;3.92;3.60;;;;;;;;;;615556;234;26566;-65
2022/09/30 12:32:38;;;;;;;3.58;3.30;;;;;;;;;;616958;233;26711;-66
2022/09/30 12:35:16;;;;;;;3.25;3.05;;;;;;;;;;615762;233;26830;-65
2022/09/30 12:37:41;;;;;;;3.20;3.00;;;;;;;;;;615538;233;26535;-66
2022/09/30 12:40:09;;;;;;;3.55;3.28;;;;;;;;;;615748;233;26567;-65
2022/09/30 12:42:57;;;;;;;4.43;4.03;;;;;;;;;;615710;233;26813;-65
2022/09/30 12:45:28;;;;;;;5.37;4.87;;;;;;;;;;611712;233;26587;-66
2022/09/30 12:47:56;;;;;;;4.37;4.07;;;;;;;;;;615619;233;26597;-66
2022/09/30 12:50:27;;;;;;;3.70;3.40;;;;;;;;;;615816;233;26801;-66
2022/09/30 12:52:56;;;;;;;4.05;3.83;;;;;;;;;;615860;232;26864;-65
2022/09/30 12:55:26;;;;;;;3.55;3.30;;;;;;;;;;615950;233;26641;-65
2022/09/30 12:57:53;;;;;;;3.35;3.15;;;;;;;;;;615841;233;26663;-65
2022/09/30 13:00:22;;;;;;;4.70;4.30;;;;;;;;;;616011;232;27273;-65
2022/09/30 13:02:53;;;;;;;3.10;2.90;;;;;;;;;;615881;232;26600;-66
2022/09/30 13:05:42;;;;;;;3.90;3.67;;;;;;;;;;615734;233;26608;-66
2022/09/30 13:08:10;;;;;;;4.10;3.80;;;;;;;;;;614132;234;26578;-66
2022/09/30 13:10:41;;;;;;;3.80;3.50;;;;;;;;;;614628;234;26561;-66
2022/09/30 13:13:22;;;;;;;3.50;3.20;;;;;;;;;;615421;234;26656;-66
2022/09/30 13:15:48;;;;;;;4.85;4.53;;;;;;;;;;615449;234;26810;-66
2022/09/30 13:18:34;;;;;;;4.95;4.55;;;;;;;;;;615655;233;26782;-66
2022/09/30 13:21:18;;;;;;;4.28;4.00;;;;;;;;;;611136;233;26621;-66
2022/09/30 13:23:47;;;;;;;3.33;3.12;;;;;;;;;;615601;234;26846;-66
2022/09/30 13:26:37;;;;;;;4.40;4.10;;;;;;;;;;615694;233;26557;-66
2022/09/30 13:29:20;;;;;;;2.90;2.70;;;;;;;;;;614232;233;26598;-66
2022/09/30 13:32:04;;;;;;;4.10;3.72;;;;;;;;;;614624;233;26560;-66
2022/09/30 13:34:34;;;;;;;4.10;3.80;;;;;;;;;;616018;234;26567;-66
2022/09/30 13:37:02;;;;;;;4.15;3.22;;;;;;;;;;614878;234;26537;-66
2022/09/30 13:39:40;;;;;;;6.28;4.00;;;;;;;;;;616012;234;26539;-66
2022/09/30 13:42:12;;;;;;;15.75;7.32;;;;;;;;;;617336;231;26859;-65
2022/09/30 13:44:47;;;;;;;5.78;5.35;;;;;;;;;;616471;233;26628;-65
2022/09/30 13:47:17;;;;;;;6.53;5.93;;;;;;;;;;616539;232;26560;-65
2022/09/30 13:49:49;;;;;;;8.15;6.40;;;;;;;;;;616134;227;26583;-65
2022/09/30 13:52:21;;;;;;;12.65;7.65;;;;;;;;;;615794;232;26787;-66
2022/09/30 13:54:50;;;;;;;12.82;7.68;;;;;;;;;;616055;233;26587;-65
2022/09/30 13:57:19;;;;;;;7.28;6.07;;;;;;;;;;616275;232;26555;-66
2022/09/30 13:59:51;;;;;;;8.77;6.30;;;;;;;;;;615766;233;26854;-65
2022/09/30 14:02:25;;;;;;;10.95;5.82;;;;;;;;;;615477;233;26588;-65
2022/09/30 14:05:13;;;;;;;9.13;6.57;;;;;;;;;;615534;233;26986;-66
2022/09/30 14:07:51;;;;;;;10.07;6.78;;;;;;;;;;615269;233;26614;-66
2022/09/30 14:10:27;;;;;;;10.75;6.28;;;;;;;;;;615600;233;26640;-65
2022/09/30 14:13:10;;;;;;;8.18;6.65;;;;;;;;;;615843;233;26627;-66
2022/09/30 14:15:55;;;;;;;10.30;6.50;;;;;;;;;;615181;230;26851;-68
2022/09/30 14:18:34;;;;;;;9.60;6.25;;;;;;;;;;600600;231;26590;-71
2022/09/30 14:21:02;;;;;;;14.93;6.28;;;;;;;;;;623180;231;26576;-67
2022/09/30 14:23:31;;;;;;;7.93;6.07;;;;;;;;;;622856;231;26584;-67
2022/09/30 14:26:05;;;;;;;7.47;5.80;;;;;;;;;;623667;231;26564;-67
2022/09/30 14:28:36;;;;;;;9.35;5.93;;;;;;;;;;622066;231;26815;-67
2022/09/30 14:31:07;;;;;;;7.53;6.28;;;;;;;;;;623320;231;26569;-67
2022/09/30 14:33:38;;;;;;;9.65;6.12;;;;;;;;;;623367;231;26620;-68
2022/09/30 14:36:08;;;;;;;7.70;5.97;;;;;;;;;;623575;231;26814;-68
2022/09/30 14:38:34;;;;;;;8.20;6.40;;;;;;;;;;623341;231;26793;-68
2022/09/30 14:41:07;;;;;;;6.03;5.53;;;;;;;;;;623816;231;26555;-68
2022/09/30 14:43:35;;;;;;;6.97;6.22;;;;;;;;;;623645;231;26843;-68
2022/09/30 14:46:07;;;;;;;7.10;5.47;;;;;;;;;;623630;231;26532;-67
2022/09/30 14:48:36;;;;;;;9.30;6.57;;;;;;;;;;623573;231;26612;-68
2022/09/30 14:51:05;;;;;;;7.82;6.28;;;;;;;;;;623656;231;26632;-67
2022/09/30 14:53:33;;;;;;;7.37;6.22;;;;;;;;;;625199;228;26859;-67
2022/09/30 14:56:03;;;;;;;7.43;6.70;;;;;;;;;;625002;230;26569;-68
2022/09/30 14:58:31;;;;;;;6.00;5.50;;;;;;;;;;624612;230;27250;-67
2022/09/30 15:01:02;;;;;;;8.15;7.28;;;;;;;;;;624047;230;26605;-67
2022/09/30 15:03:30;;;;;;;6.35;5.62;;;;;;;;;;624235;230;26653;-67
2022/09/30 15:05:59;;;;;;;7.28;6.57;;;;;;;;;;624245;230;26833;-67
2022/09/30 15:08:28;;;;;;;6.10;5.50;;;;;;;;;;624400;230;26582;-67